sensor_id;sensor_type;location;lat;lon;timestamp;temperature;humidity
15700;DHT22;7950;42.744;23.174;2022-07-23T00:02:10;18.60;99.90
15700;DHT22;7950;42.744;23.174;2022-07-23T00:04:39;18.60;99.90
15700;DHT22;7950;42.744;23.174;2022-07-23T00:07:08;18.60;99.90
15700;DHT22;7950;42.744;23.174;2022-07-23T00:09:39;18.60;99.90
15700;DHT22;7950;42.744;23.174;2022-07-23T00:12:08;18.60;99.90
15700;DHT22;7950;42.744;23.174;2022-07-23T00:14:37;18.50;99.90
15700;DHT22;7950;42.744;23.174;2022-07-23T00:17:06;18.40;99.90
15700;DHT22;7950;42.744;23.174;2022-07-23T00:19:35;18.30;99.90
15700;DHT22;7950;42.744;23.174;2022-07-23T00:22:04;18.20;99.90
15700;DHT22;7950;42.744;23.174;2022-07-23T00:25:04;18.10;99.90
15700;DHT22;7950;42.744;23.174;2022-07-23T00:27:53;18.10;99.90
15700;DHT22;7950;42.744;23.174;2022-07-23T00:30:22;18.00;99.90
15700;DHT22;7950;42.744;23.174;2022-07-23T00:32:52;18.00;99.90
15700;DHT22;7950;42.744;23.174;2022-07-23T00:35:25;18.00;99.90
15700;DHT22;7950;42.744;23.174;2022-07-23T00:38:01;17.90;99.90
15700;DHT22;7950;42.744;23.174;2022-07-23T00:40:35;17.90;99.90
15700;DHT22;7950;42.744;23.174;2022-07-23T00:43:06;17.80;99.90
15700;DHT22;7950;42.744;23.174;2022-07-23T00:45:35;17.70;99.90
15700;DHT22;7950;42.744;23.174;2022-07-23T00:48:29;17.70;99.90
15700;DHT22;7950;42.744;23.174;2022-07-23T00:50:58;17.70;99.90
15700;DHT22;7950;42.744;23.174;2022-07-23T00:53:27;17.70;99.90
15700;DHT22;7950;42.744;23.174;2022-07-23T00:55:59;17.50;99.90
15700;DHT22;7950;42.744;23.174;2022-07-23T00:58:29;17.50;99.90
15700;DHT22;7950;42.744;23.174;2022-07-23T01:00:58;17.50;99.90
15700;DHT22;7950;42.744;23.174;2022-07-23T01:03:27;17.50;99.90
15700;DHT22;7950;42.744;23.174;2022-07-23T01:05:57;17.50;99.90
15700;DHT22;7950;42.744;23.174;2022-07-23T01:08:26;17.40;99.90
15700;DHT22;7950;42.744;23.174;2022-07-23T01:10:55;17.40;99.90
15700;DHT22;7950;42.744;23.174;2022-07-23T01:13:26;17.30;99.90
15700;DHT22;7950;42.744;23.174;2022-07-23T01:15:55;17.30;99.90
15700;DHT22;7950;42.744;23.174;2022-07-23T01:18:24;17.30;99.90
15700;DHT22;7950;42.744;23.174;2022-07-23T01:21:23;17.30;99.90
15700;DHT22;7950;42.744;23.174;2022-07-23T01:23:54;17.30;99.90
15700;DHT22;7950;42.744;23.174;2022-07-23T01:26:23;17.20;99.90
15700;DHT22;7950;42.744;23.174;2022-07-23T01:28:52;17.10;99.90
15700;DHT22;7950;42.744;23.174;2022-07-23T01:31:21;17.10;99.90
15700;DHT22;7950;42.744;23.174;2022-07-23T01:33:57;17.20;99.90
15700;DHT22;7950;42.744;23.174;2022-07-23T01:36:26;17.10;99.90
15700;DHT22;7950;42.744;23.174;2022-07-23T01:38:57;17.10;99.90
15700;DHT22;7950;42.744;23.174;2022-07-23T01:41:26;17.20;99.90
15700;DHT22;7950;42.744;23.174;2022-07-23T01:43:56;17.20;99.90
15700;DHT22;7950;42.744;23.174;2022-07-23T01:46:25;17.10;99.90
15700;DHT22;7950;42.744;23.174;2022-07-23T01:48:54;17.00;99.90
15700;DHT22;7950;42.744;23.174;2022-07-23T01:51:23;16.90;99.90
15700;DHT22;7950;42.744;23.174;2022-07-23T01:53:53;16.90;99.90
15700;DHT22;7950;42.744;23.174;2022-07-23T01:56:23;16.80;99.90
15700;DHT22;7950;42.744;23.174;2022-07-23T01:58:52;16.80;99.90
15700;DHT22;7950;42.744;23.174;2022-07-23T02:01:21;16.80;99.90
15700;DHT22;7950;42.744;23.174;2022-07-23T02:04:16;16.80;99.90
15700;DHT22;7950;42.744;23.174;2022-07-23T02:06:45;16.70;99.90
15700;DHT22;7950;42.744;23.174;2022-07-23T02:09:14;16.70;99.90
15700;DHT22;7950;42.744;23.174;2022-07-23T02:11:45;16.60;99.90
15700;DHT22;7950;42.744;23.174;2022-07-23T02:14:15;16.60;99.90
15700;DHT22;7950;42.744;23.174;2022-07-23T02:16:44;16.60;99.90
15700;DHT22;7950;42.744;23.174;2022-07-23T02:19:13;16.70;99.90
15700;DHT22;7950;42.744;23.174;2022-07-23T02:21:42;16.60;99.90
15700;DHT22;7950;42.744;23.174;2022-07-23T02:24:11;16.70;99.90
15700;DHT22;7950;42.744;23.174;2022-07-23T02:26:40;16.60;99.90
15700;DHT22;7950;42.744;23.174;2022-07-23T02:29:11;16.60;99.90
15700;DHT22;7950;42.744;23.174;2022-07-23T02:31:40;16.60;99.90
15700;DHT22;7950;42.744;23.174;2022-07-23T02:34:10;16.60;99.90
15700;DHT22;7950;42.744;23.174;2022-07-23T02:36:39;16.50;99.90
15700;DHT22;7950;42.744;23.174;2022-07-23T02:39:08;16.50;99.90
15700;DHT22;7950;42.744;23.174;2022-07-23T02:41:37;16.50;99.90
15700;DHT22;7950;42.744;23.174;2022-07-23T02:44:32;16.40;99.90
15700;DHT22;7950;42.744;23.174;2022-07-23T02:47:02;16.50;99.90
15700;DHT22;7950;42.744;23.174;2022-07-23T02:49:31;16.40;99.90
15700;DHT22;7950;42.744;23.174;2022-07-23T02:52:00;16.20;99.90
15700;DHT22;7950;42.744;23.174;2022-07-23T02:54:29;16.20;99.90
15700;DHT22;7950;42.744;23.174;2022-07-23T02:56:58;16.20;99.90
15700;DHT22;7950;42.744;23.174;2022-07-23T02:59:27;16.20;99.90
15700;DHT22;7950;42.744;23.174;2022-07-23T03:01:58;16.20;99.90
15700;DHT22;7950;42.744;23.174;2022-07-23T03:04:26;16.10;99.90
15700;DHT22;7950;42.744;23.174;2022-07-23T03:06:55;16.10;99.90
15700;DHT22;7950;42.744;23.174;2022-07-23T03:09:24;16.10;99.90
15700;DHT22;7950;42.744;23.174;2022-07-23T03:11:53;16.10;99.90
15700;DHT22;7950;42.744;23.174;2022-07-23T03:14:22;16.10;99.90
15700;DHT22;7950;42.744;23.174;2022-07-23T03:16:51;16.10;99.90
15700;DHT22;7950;42.744;23.174;2022-07-23T03:19:23;16.10;99.90
15700;DHT22;7950;42.744;23.174;2022-07-23T03:21:51;16.10;99.90
15700;DHT22;7950;42.744;23.174;2022-07-23T03:24:21;16.10;99.90
15700;DHT22;7950;42.744;23.174;2022-07-23T03:26:51;16.20;99.90
15700;DHT22;7950;42.744;23.174;2022-07-23T03:29:20;16.10;99.90
15700;DHT22;7950;42.744;23.174;2022-07-23T03:31:49;16.00;99.90
15700;DHT22;7950;42.744;23.174;2022-07-23T03:34:18;16.00;99.90
15700;DHT22;7950;42.744;23.174;2022-07-23T03:36:48;16.00;99.90
15700;DHT22;7950;42.744;23.174;2022-07-23T03:39:17;16.00;99.90
15700;DHT22;7950;42.744;23.174;2022-07-23T03:41:46;16.10;99.90
15700;DHT22;7950;42.744;23.174;2022-07-23T03:44:15;16.20;99.90
15700;DHT22;7950;42.744;23.174;2022-07-23T03:46:44;16.20;99.90
15700;DHT22;7950;42.744;23.174;2022-07-23T03:49:13;16.30;99.90
15700;DHT22;7950;42.744;23.174;2022-07-23T03:51:42;16.40;99.90
15700;DHT22;7950;42.744;23.174;2022-07-23T03:54:12;16.40;99.90
15700;DHT22;7950;42.744;23.174;2022-07-23T03:56:41;16.50;99.90
15700;DHT22;7950;42.744;23.174;2022-07-23T03:59:11;16.60;99.90
15700;DHT22;7950;42.744;23.174;2022-07-23T04:02:10;16.70;99.90
15700;DHT22;7950;42.744;23.174;2022-07-23T04:04:39;16.80;99.90
15700;DHT22;7950;42.744;23.174;2022-07-23T04:07:07;16.90;99.90
15700;DHT22;7950;42.744;23.174;2022-07-23T04:09:38;17.10;99.90
15700;DHT22;7950;42.744;23.174;2022-07-23T04:12:12;17.10;99.90
15700;DHT22;7950;42.744;23.174;2022-07-23T04:15:07;17.20;99.90
15700;DHT22;7950;42.744;23.174;2022-07-23T04:17:36;17.40;99.90
15700;DHT22;7950;42.744;23.174;2022-07-23T04:20:06;17.60;99.90
15700;DHT22;7950;42.744;23.174;2022-07-23T04:22:35;17.70;99.90
15700;DHT22;7950;42.744;23.174;2022-07-23T04:25:06;17.80;99.90
15700;DHT22;7950;42.744;23.174;2022-07-23T04:27:35;17.90;99.90
15700;DHT22;7950;42.744;23.174;2022-07-23T04:30:05;18.00;99.90
15700;DHT22;7950;42.744;23.174;2022-07-23T04:32:36;18.10;99.90
15700;DHT22;7950;42.744;23.174;2022-07-23T04:35:05;18.20;99.90
15700;DHT22;7950;42.744;23.174;2022-07-23T04:37:34;18.40;99.90
15700;DHT22;7950;42.744;23.174;2022-07-23T04:40:06;18.50;99.90
15700;DHT22;7950;42.744;23.174;2022-07-23T04:42:38;18.60;99.90
15700;DHT22;7950;42.744;23.174;2022-07-23T04:45:08;18.80;99.90
15700;DHT22;7950;42.744;23.174;2022-07-23T04:47:39;18.90;99.90
15700;DHT22;7950;42.744;23.174;2022-07-23T04:50:09;19.10;99.90
15700;DHT22;7950;42.744;23.174;2022-07-23T04:52:37;19.20;99.90
15700;DHT22;7950;42.744;23.174;2022-07-23T04:55:08;19.30;99.90
15700;DHT22;7950;42.744;23.174;2022-07-23T04:57:37;19.50;99.90
15700;DHT22;7950;42.744;23.174;2022-07-23T05:00:07;19.70;99.90
15700;DHT22;7950;42.744;23.174;2022-07-23T05:02:38;19.80;99.90
15700;DHT22;7950;42.744;23.174;2022-07-23T05:05:07;20.00;99.90
15700;DHT22;7950;42.744;23.174;2022-07-23T05:07:36;20.20;99.90
15700;DHT22;7950;42.744;23.174;2022-07-23T05:10:07;20.40;99.90
15700;DHT22;7950;42.744;23.174;2022-07-23T05:12:36;20.60;99.90
15700;DHT22;7950;42.744;23.174;2022-07-23T05:15:06;20.70;99.90
15700;DHT22;7950;42.744;23.174;2022-07-23T05:17:35;20.90;99.90
15700;DHT22;7950;42.744;23.174;2022-07-23T05:20:04;21.00;99.90
15700;DHT22;7950;42.744;23.174;2022-07-23T05:22:34;21.20;99.90
15700;DHT22;7950;42.744;23.174;2022-07-23T05:25:03;21.30;99.90
15700;DHT22;7950;42.744;23.174;2022-07-23T05:27:34;21.40;99.90
15700;DHT22;7950;42.744;23.174;2022-07-23T05:30:04;21.60;99.90
15700;DHT22;7950;42.744;23.174;2022-07-23T05:32:33;21.80;99.90
15700;DHT22;7950;42.744;23.174;2022-07-23T05:35:09;21.90;99.90
15700;DHT22;7950;42.744;23.174;2022-07-23T05:37:38;22.10;99.90
15700;DHT22;7950;42.744;23.174;2022-07-23T05:40:09;22.20;99.90
15700;DHT22;7950;42.744;23.174;2022-07-23T05:42:43;22.40;99.90
15700;DHT22;7950;42.744;23.174;2022-07-23T05:45:12;22.50;99.90
15700;DHT22;7950;42.744;23.174;2022-07-23T05:47:42;22.60;99.90
15700;DHT22;7950;42.744;23.174;2022-07-23T05:50:12;22.70;99.90
15700;DHT22;7950;42.744;23.174;2022-07-23T05:52:42;22.90;99.90
15700;DHT22;7950;42.744;23.174;2022-07-23T05:55:11;23.10;99.90
15700;DHT22;7950;42.744;23.174;2022-07-23T05:57:42;23.20;99.90
15700;DHT22;7950;42.744;23.174;2022-07-23T06:00:12;23.40;99.90
15700;DHT22;7950;42.744;23.174;2022-07-23T06:02:41;23.50;99.90
15700;DHT22;7950;42.744;23.174;2022-07-23T06:05:09;23.70;99.90
15700;DHT22;7950;42.744;23.174;2022-07-23T06:07:38;23.80;99.90
15700;DHT22;7950;42.744;23.174;2022-07-23T06:10:09;23.90;99.90
15700;DHT22;7950;42.744;23.174;2022-07-23T06:12:39;24.00;99.90
15700;DHT22;7950;42.744;23.174;2022-07-23T06:15:10;24.10;99.90
15700;DHT22;7950;42.744;23.174;2022-07-23T06:17:39;24.30;99.90
15700;DHT22;7950;42.744;23.174;2022-07-23T06:20:09;24.50;99.90
15700;DHT22;7950;42.744;23.174;2022-07-23T06:22:38;24.60;99.90
15700;DHT22;7950;42.744;23.174;2022-07-23T06:25:32;24.70;99.90
15700;DHT22;7950;42.744;23.174;2022-07-23T06:28:00;24.80;99.90
15700;DHT22;7950;42.744;23.174;2022-07-23T06:30:31;24.90;99.90
15700;DHT22;7950;42.744;23.174;2022-07-23T06:33:00;24.90;99.90
15700;DHT22;7950;42.744;23.174;2022-07-23T06:35:29;24.90;99.90
15700;DHT22;7950;42.744;23.174;2022-07-23T06:37:58;24.90;99.90
15700;DHT22;7950;42.744;23.174;2022-07-23T06:40:28;24.90;99.90
15700;DHT22;7950;42.744;23.174;2022-07-23T06:42:57;25.10;99.90
15700;DHT22;7950;42.744;23.174;2022-07-23T06:45:26;25.20;99.90
15700;DHT22;7950;42.744;23.174;2022-07-23T06:47:56;25.30;99.90
15700;DHT22;7950;42.744;23.174;2022-07-23T06:50:26;25.40;99.50
15700;DHT22;7950;42.744;23.174;2022-07-23T06:52:55;25.40;98.70
15700;DHT22;7950;42.744;23.174;2022-07-23T06:55:24;25.50;97.90
15700;DHT22;7950;42.744;23.174;2022-07-23T06:57:53;25.50;99.60
15700;DHT22;7950;42.744;23.174;2022-07-23T07:00:33;25.70;99.90
15700;DHT22;7950;42.744;23.174;2022-07-23T07:03:04;25.70;99.90
15700;DHT22;7950;42.744;23.174;2022-07-23T07:05:36;25.90;99.90
15700;DHT22;7950;42.744;23.174;2022-07-23T07:08:06;26.10;99.10
15700;DHT22;7950;42.744;23.174;2022-07-23T07:10:35;26.10;96.40
15700;DHT22;7950;42.744;23.174;2022-07-23T07:13:04;26.20;97.10
15700;DHT22;7950;42.744;23.174;2022-07-23T07:15:32;26.40;97.00
15700;DHT22;7950;42.744;23.174;2022-07-23T07:18:01;26.50;95.70
15700;DHT22;7950;42.744;23.174;2022-07-23T07:20:32;26.60;93.90
15700;DHT22;7950;42.744;23.174;2022-07-23T07:23:01;26.70;95.90
15700;DHT22;7950;42.744;23.174;2022-07-23T07:25:30;26.80;95.00
15700;DHT22;7950;42.744;23.174;2022-07-23T07:27:58;27.00;95.10
15700;DHT22;7950;42.744;23.174;2022-07-23T07:30:27;27.20;93.80
15700;DHT22;7950;42.744;23.174;2022-07-23T07:33:00;27.30;93.70
15700;DHT22;7950;42.744;23.174;2022-07-23T07:35:29;27.40;91.60
15700;DHT22;7950;42.744;23.174;2022-07-23T07:38:04;27.40;91.50
15700;DHT22;7950;42.744;23.174;2022-07-23T07:40:33;27.50;91.50
15700;DHT22;7950;42.744;23.174;2022-07-23T07:43:02;27.70;91.60
15700;DHT22;7950;42.744;23.174;2022-07-23T07:45:31;27.90;92.80
15700;DHT22;7950;42.744;23.174;2022-07-23T07:48:00;28.00;90.90
15700;DHT22;7950;42.744;23.174;2022-07-23T07:50:29;28.10;89.50
15700;DHT22;7950;42.744;23.174;2022-07-23T07:52:58;28.20;90.00
15700;DHT22;7950;42.744;23.174;2022-07-23T07:55:35;28.20;88.20
15700;DHT22;7950;42.744;23.174;2022-07-23T07:58:04;28.30;88.50
15700;DHT22;7950;42.744;23.174;2022-07-23T08:00:33;28.40;87.20
15700;DHT22;7950;42.744;23.174;2022-07-23T08:03:01;28.50;86.40
15700;DHT22;7950;42.744;23.174;2022-07-23T08:05:30;28.70;87.80
15700;DHT22;7950;42.744;23.174;2022-07-23T08:07:59;28.90;88.30
15700;DHT22;7950;42.744;23.174;2022-07-23T08:10:28;29.10;84.20
15700;DHT22;7950;42.744;23.174;2022-07-23T08:13:00;29.30;85.80
15700;DHT22;7950;42.744;23.174;2022-07-23T08:15:29;29.40;80.20
15700;DHT22;7950;42.744;23.174;2022-07-23T08:17:59;29.20;80.20
15700;DHT22;7950;42.744;23.174;2022-07-23T08:20:28;29.20;81.80
15700;DHT22;7950;42.744;23.174;2022-07-23T08:26:14;29.40;81.20
15700;DHT22;7950;42.744;23.174;2022-07-23T08:28:45;29.60;79.20
15700;DHT22;7950;42.744;23.174;2022-07-23T08:31:14;29.70;79.10
15700;DHT22;7950;42.744;23.174;2022-07-23T08:33:44;29.80;80.50
15700;DHT22;7950;42.744;23.174;2022-07-23T08:36:13;30.00;76.70
15700;DHT22;7950;42.744;23.174;2022-07-23T08:38:42;30.00;75.20
15700;DHT22;7950;42.744;23.174;2022-07-23T08:41:11;30.10;76.90
15700;DHT22;7950;42.744;23.174;2022-07-23T08:43:40;30.30;76.30
15700;DHT22;7950;42.744;23.174;2022-07-23T08:46:13;30.40;74.40
15700;DHT22;7950;42.744;23.174;2022-07-23T08:48:42;30.50;74.70
15700;DHT22;7950;42.744;23.174;2022-07-23T08:51:11;30.60;73.90
15700;DHT22;7950;42.744;23.174;2022-07-23T08:53:41;30.60;74.10
15700;DHT22;7950;42.744;23.174;2022-07-23T08:56:11;30.70;73.30
15700;DHT22;7950;42.744;23.174;2022-07-23T08:59:07;30.90;73.30
15700;DHT22;7950;42.744;23.174;2022-07-23T09:01:41;31.00;73.20
15700;DHT22;7950;42.744;23.174;2022-07-23T09:04:13;31.00;70.70
15700;DHT22;7950;42.744;23.174;2022-07-23T09:06:42;31.10;70.60
15700;DHT22;7950;42.744;23.174;2022-07-23T09:09:18;31.30;70.20
15700;DHT22;7950;42.744;23.174;2022-07-23T09:11:47;31.40;70.00
15700;DHT22;7950;42.744;23.174;2022-07-23T09:14:54;31.50;69.70
15700;DHT22;7950;42.744;23.174;2022-07-23T09:17:25;31.60;67.40
15700;DHT22;7950;42.744;23.174;2022-07-23T09:20:07;31.60;67.10
15700;DHT22;7950;42.744;23.174;2022-07-23T09:22:37;31.70;67.20
15700;DHT22;7950;42.744;23.174;2022-07-23T09:25:12;31.80;66.60
15700;DHT22;7950;42.744;23.174;2022-07-23T09:27:50;31.90;66.30
15700;DHT22;7950;42.744;23.174;2022-07-23T09:30:23;32.10;67.20
15700;DHT22;7950;42.744;23.174;2022-07-23T09:33:11;32.20;69.20
15700;DHT22;7950;42.744;23.174;2022-07-23T09:35:46;32.40;64.50
15700;DHT22;7950;42.744;23.174;2022-07-23T09:38:18;32.60;66.20
15700;DHT22;7950;42.744;23.174;2022-07-23T09:41:05;32.70;63.30
15700;DHT22;7950;42.744;23.174;2022-07-23T09:43:35;32.80;62.60
15700;DHT22;7950;42.744;23.174;2022-07-23T09:46:21;32.80;60.80
15700;DHT22;7950;42.744;23.174;2022-07-23T09:48:54;32.80;62.80
15700;DHT22;7950;42.744;23.174;2022-07-23T09:51:24;33.00;60.00
15700;DHT22;7950;42.744;23.174;2022-07-23T09:54:21;33.20;55.00
15700;DHT22;7950;42.744;23.174;2022-07-23T09:56:55;33.40;56.30
15700;DHT22;7950;42.744;23.174;2022-07-23T09:59:29;33.50;54.60
15700;DHT22;7950;42.744;23.174;2022-07-23T10:02:01;33.60;50.90
15700;DHT22;7950;42.744;23.174;2022-07-23T10:04:33;33.70;49.10
15700;DHT22;7950;42.744;23.174;2022-07-23T10:07:05;33.70;49.80
15700;DHT22;7950;42.744;23.174;2022-07-23T10:09:39;33.70;49.50
15700;DHT22;7950;42.744;23.174;2022-07-23T10:12:12;33.80;50.40
15700;DHT22;7950;42.744;23.174;2022-07-23T10:15:02;33.90;46.80
15700;DHT22;7950;42.744;23.174;2022-07-23T10:17:33;33.80;46.30
15700;DHT22;7950;42.744;23.174;2022-07-23T10:20:04;33.80;47.70
15700;DHT22;7950;42.744;23.174;2022-07-23T10:22:35;33.90;49.00
15700;DHT22;7950;42.744;23.174;2022-07-23T10:25:15;34.00;48.30
15700;DHT22;7950;42.744;23.174;2022-07-23T10:31:31;34.30;48.10
15700;DHT22;7950;42.744;23.174;2022-07-23T10:34:33;34.60;48.50
15700;DHT22;7950;42.744;23.174;2022-07-23T10:37:16;34.80;47.00
15700;DHT22;7950;42.744;23.174;2022-07-23T10:40:09;35.00;47.30
15700;DHT22;7950;42.744;23.174;2022-07-23T10:42:39;35.00;45.10
15700;DHT22;7950;42.744;23.174;2022-07-23T10:45:30;35.00;43.60
15700;DHT22;7950;42.744;23.174;2022-07-23T10:48:16;34.90;45.80
15700;DHT22;7950;42.744;23.174;2022-07-23T10:51:07;35.00;46.90
15700;DHT22;7950;42.744;23.174;2022-07-23T10:53:57;34.90;45.80
15700;DHT22;7950;42.744;23.174;2022-07-23T11:00:16;35.00;45.30
15700;DHT22;7950;42.744;23.174;2022-07-23T11:02:53;35.20;46.70
15700;DHT22;7950;42.744;23.174;2022-07-23T11:05:23;35.40;43.20
15700;DHT22;7950;42.744;23.174;2022-07-23T11:08:15;35.50;43.20
15700;DHT22;7950;42.744;23.174;2022-07-23T11:10:48;35.70;40.90
15700;DHT22;7950;42.744;23.174;2022-07-23T11:13:33;35.70;39.10
15700;DHT22;7950;42.744;23.174;2022-07-23T11:16:08;35.80;39.90
15700;DHT22;7950;42.744;23.174;2022-07-23T11:19:04;35.90;40.50
15700;DHT22;7950;42.744;23.174;2022-07-23T11:21:43;35.80;38.90
15700;DHT22;7950;42.744;23.174;2022-07-23T11:24:18;35.70;38.60
15700;DHT22;7950;42.744;23.174;2022-07-23T11:26:57;35.70;40.10
15700;DHT22;7950;42.744;23.174;2022-07-23T11:29:47;35.90;42.10
15700;DHT22;7950;42.744;23.174;2022-07-23T11:32:42;35.90;37.60
15700;DHT22;7950;42.744;23.174;2022-07-23T11:35:25;35.80;38.30
15700;DHT22;7950;42.744;23.174;2022-07-23T11:38:04;35.80;39.60
15700;DHT22;7950;42.744;23.174;2022-07-23T11:40:34;36.00;40.00
15700;DHT22;7950;42.744;23.174;2022-07-23T11:43:06;36.10;37.30
15700;DHT22;7950;42.744;23.174;2022-07-23T11:45:38;36.20;38.20
15700;DHT22;7950;42.744;23.174;2022-07-23T11:48:09;36.20;37.20
15700;DHT22;7950;42.744;23.174;2022-07-23T11:50:43;36.20;38.30
15700;DHT22;7950;42.744;23.174;2022-07-23T11:53:13;36.30;38.90
15700;DHT22;7950;42.744;23.174;2022-07-23T11:55:49;36.30;38.00
15700;DHT22;7950;42.744;23.174;2022-07-23T11:58:54;36.30;36.50
15700;DHT22;7950;42.744;23.174;2022-07-23T12:01:26;36.20;36.10
15700;DHT22;7950;42.744;23.174;2022-07-23T12:03:55;36.00;35.70
15700;DHT22;7950;42.744;23.174;2022-07-23T12:06:24;35.80;36.30
15700;DHT22;7950;42.744;23.174;2022-07-23T12:08:53;35.80;39.30
15700;DHT22;7950;42.744;23.174;2022-07-23T12:11:22;35.90;37.60
15700;DHT22;7950;42.744;23.174;2022-07-23T12:13:57;35.90;37.50
15700;DHT22;7950;42.744;23.174;2022-07-23T12:16:27;35.90;38.00
15700;DHT22;7950;42.744;23.174;2022-07-23T12:18:56;36.00;38.40
15700;DHT22;7950;42.744;23.174;2022-07-23T12:21:34;36.10;36.90
15700;DHT22;7950;42.744;23.174;2022-07-23T12:24:06;36.00;37.70
15700;DHT22;7950;42.744;23.174;2022-07-23T12:26:36;36.00;38.50
15700;DHT22;7950;42.744;23.174;2022-07-23T12:29:07;36.10;38.90
15700;DHT22;7950;42.744;23.174;2022-07-23T12:31:48;36.10;38.10
15700;DHT22;7950;42.744;23.174;2022-07-23T12:34:18;36.20;35.20
15700;DHT22;7950;42.744;23.174;2022-07-23T12:36:47;36.20;33.40
15700;DHT22;7950;42.744;23.174;2022-07-23T12:39:39;36.20;35.50
15700;DHT22;7950;42.744;23.174;2022-07-23T12:42:11;36.20;38.40
15700;DHT22;7950;42.744;23.174;2022-07-23T12:45:03;36.40;38.90
15700;DHT22;7950;42.744;23.174;2022-07-23T12:48:17;36.50;37.20
15700;DHT22;7950;42.744;23.174;2022-07-23T12:50:51;36.60;37.30
15700;DHT22;7950;42.744;23.174;2022-07-23T12:53:23;36.60;37.50
15700;DHT22;7950;42.744;23.174;2022-07-23T12:55:59;36.70;35.90
15700;DHT22;7950;42.744;23.174;2022-07-23T12:58:46;36.70;34.10
15700;DHT22;7950;42.744;23.174;2022-07-23T13:01:34;36.50;34.30
15700;DHT22;7950;42.744;23.174;2022-07-23T13:04:06;36.50;36.70
15700;DHT22;7950;42.744;23.174;2022-07-23T13:06:41;36.60;35.90
15700;DHT22;7950;42.744;23.174;2022-07-23T13:09:12;36.70;35.00
15700;DHT22;7950;42.744;23.174;2022-07-23T13:11:43;36.90;35.10
15700;DHT22;7950;42.744;23.174;2022-07-23T13:14:15;36.90;37.00
15700;DHT22;7950;42.744;23.174;2022-07-23T13:16:49;37.00;37.10
15700;DHT22;7950;42.744;23.174;2022-07-23T13:19:44;37.00;34.60
15700;DHT22;7950;42.744;23.174;2022-07-23T13:22:13;37.00;34.00
15700;DHT22;7950;42.744;23.174;2022-07-23T13:24:42;36.90;34.10
15700;DHT22;7950;42.744;23.174;2022-07-23T13:27:11;36.70;34.10
15700;DHT22;7950;42.744;23.174;2022-07-23T13:29:43;36.70;35.50
15700;DHT22;7950;42.744;23.174;2022-07-23T13:32:26;36.50;34.00
15700;DHT22;7950;42.744;23.174;2022-07-23T13:34:56;36.50;35.80
15700;DHT22;7950;42.744;23.174;2022-07-23T13:37:24;36.50;35.60
15700;DHT22;7950;42.744;23.174;2022-07-23T13:39:53;36.40;35.10
15700;DHT22;7950;42.744;23.174;2022-07-23T13:42:22;36.40;34.80
15700;DHT22;7950;42.744;23.174;2022-07-23T13:44:51;36.40;34.60
15700;DHT22;7950;42.744;23.174;2022-07-23T13:47:20;36.40;34.60
15700;DHT22;7950;42.744;23.174;2022-07-23T13:49:52;36.40;35.10
15700;DHT22;7950;42.744;23.174;2022-07-23T13:52:21;36.40;35.30
15700;DHT22;7950;42.744;23.174;2022-07-23T13:54:53;36.40;36.40
15700;DHT22;7950;42.744;23.174;2022-07-23T13:57:23;36.40;36.50
15700;DHT22;7950;42.744;23.174;2022-07-23T13:59:53;36.40;34.60
15700;DHT22;7950;42.744;23.174;2022-07-23T14:02:22;36.20;35.20
15700;DHT22;7950;42.744;23.174;2022-07-23T14:04:53;36.20;36.40
15700;DHT22;7950;42.744;23.174;2022-07-23T14:07:22;36.20;34.90
15700;DHT22;7950;42.744;23.174;2022-07-23T14:09:51;36.10;34.90
15700;DHT22;7950;42.744;23.174;2022-07-23T14:12:20;36.10;35.40
15700;DHT22;7950;42.744;23.174;2022-07-23T14:14:50;35.90;35.50
15700;DHT22;7950;42.744;23.174;2022-07-23T14:17:19;35.60;35.50
15700;DHT22;7950;42.744;23.174;2022-07-23T14:19:54;35.40;36.80
15700;DHT22;7950;42.744;23.174;2022-07-23T14:22:23;35.30;36.40
15700;DHT22;7950;42.744;23.174;2022-07-23T14:24:52;35.30;36.60
15700;DHT22;7950;42.744;23.174;2022-07-23T14:27:21;35.40;36.10
15700;DHT22;7950;42.744;23.174;2022-07-23T14:29:57;35.50;35.70
15700;DHT22;7950;42.744;23.174;2022-07-23T14:32:26;35.50;36.10
15700;DHT22;7950;42.744;23.174;2022-07-23T14:34:57;35.60;36.90
15700;DHT22;7950;42.744;23.174;2022-07-23T14:37:28;35.60;36.90
15700;DHT22;7950;42.744;23.174;2022-07-23T14:39:57;35.70;37.00
15700;DHT22;7950;42.744;23.174;2022-07-23T14:42:47;35.70;37.80
15700;DHT22;7950;42.744;23.174;2022-07-23T14:45:16;35.70;35.80
15700;DHT22;7950;42.744;23.174;2022-07-23T14:47:46;35.80;37.40
15700;DHT22;7950;42.744;23.174;2022-07-23T14:50:16;35.90;35.50
15700;DHT22;7950;42.744;23.174;2022-07-23T14:52:45;36.00;36.10
15700;DHT22;7950;42.744;23.174;2022-07-23T14:55:15;36.00;35.50
15700;DHT22;7950;42.744;23.174;2022-07-23T14:58:10;35.90;35.10
15700;DHT22;7950;42.744;23.174;2022-07-23T15:00:39;35.80;35.20
15700;DHT22;7950;42.744;23.174;2022-07-23T15:03:08;35.80;35.40
15700;DHT22;7950;42.744;23.174;2022-07-23T15:05:39;35.80;36.90
15700;DHT22;7950;42.744;23.174;2022-07-23T15:08:08;35.80;37.00
15700;DHT22;7950;42.744;23.174;2022-07-23T15:10:37;35.80;37.60
15700;DHT22;7950;42.744;23.174;2022-07-23T15:13:06;35.80;37.30
15700;DHT22;7950;42.744;23.174;2022-07-23T15:15:35;35.90;36.80
15700;DHT22;7950;42.744;23.174;2022-07-23T15:18:06;35.90;38.00
15700;DHT22;7950;42.744;23.174;2022-07-23T15:20:38;36.00;38.30
15700;DHT22;7950;42.744;23.174;2022-07-23T15:23:07;36.00;38.20
15700;DHT22;7950;42.744;23.174;2022-07-23T15:25:36;36.10;38.20
15700;DHT22;7950;42.744;23.174;2022-07-23T15:28:16;36.00;38.80
15700;DHT22;7950;42.744;23.174;2022-07-23T15:30:49;36.00;38.80
15700;DHT22;7950;42.744;23.174;2022-07-23T15:33:18;36.00;38.80
15700;DHT22;7950;42.744;23.174;2022-07-23T15:35:49;35.90;38.50
15700;DHT22;7950;42.744;23.174;2022-07-23T15:38:19;35.90;38.90
15700;DHT22;7950;42.744;23.174;2022-07-23T15:41:02;35.80;38.90
15700;DHT22;7950;42.744;23.174;2022-07-23T15:43:34;35.80;39.30
15700;DHT22;7950;42.744;23.174;2022-07-23T15:46:04;35.80;39.70
15700;DHT22;7950;42.744;23.174;2022-07-23T15:48:36;35.80;38.30
15700;DHT22;7950;42.744;23.174;2022-07-23T15:51:07;35.80;38.00
15700;DHT22;7950;42.744;23.174;2022-07-23T15:53:37;35.80;38.10
15700;DHT22;7950;42.744;23.174;2022-07-23T15:56:07;35.80;38.60
15700;DHT22;7950;42.744;23.174;2022-07-23T15:58:42;35.70;38.90
15700;DHT22;7950;42.744;23.174;2022-07-23T16:01:12;35.70;39.60
15700;DHT22;7950;42.744;23.174;2022-07-23T16:03:41;35.70;41.70
15700;DHT22;7950;42.744;23.174;2022-07-23T16:06:15;35.60;41.60
15700;DHT22;7950;42.744;23.174;2022-07-23T16:08:45;35.60;41.30
15700;DHT22;7950;42.744;23.174;2022-07-23T16:11:14;35.50;40.80
15700;DHT22;7950;42.744;23.174;2022-07-23T16:13:44;35.40;39.70
15700;DHT22;7950;42.744;23.174;2022-07-23T16:16:13;35.30;40.20